createdAt,value
2023-03-18T00:00:41.972Z,8.98
2023-03-18T00:03:09.060Z,8.27
2023-03-18T00:05:36.381Z,8.95
2023-03-18T00:08:04.624Z,9.75
2023-03-18T00:10:33.208Z,10.18
2023-03-18T00:13:01.341Z,10.75
2023-03-18T00:15:28.823Z,9.75
2023-03-18T00:17:59.096Z,11.70
2023-03-18T00:20:38.595Z,10.05
2023-03-18T00:23:08.013Z,10.73
2023-03-18T00:25:35.909Z,10.10
2023-03-18T00:28:03.656Z,10.40
2023-03-18T00:30:31.193Z,10.82
2023-03-18T00:32:59.058Z,10.15
2023-03-18T00:35:30.885Z,11.57
2023-03-18T00:37:58.774Z,10.82
2023-03-18T00:40:43.250Z,12.35
2023-03-18T00:43:12.843Z,9.50
2023-03-18T00:45:40.971Z,10.88
2023-03-18T00:48:08.950Z,11.05
2023-03-18T00:50:37.072Z,11.45
2023-03-18T00:53:04.450Z,12.18
2023-03-18T00:55:32.539Z,11.57
2023-03-18T00:57:59.707Z,13.02
2023-03-18T01:00:27.143Z,11.20
2023-03-18T01:02:55.157Z,12.20
2023-03-18T01:05:22.969Z,10.75
2023-03-18T01:07:50.310Z,11.07
2023-03-18T01:10:17.630Z,10.57
2023-03-18T01:12:47.138Z,10.55
2023-03-18T01:15:15.502Z,10.88
2023-03-18T01:17:42.733Z,10.65
2023-03-18T01:20:11.569Z,10.85
2023-03-18T01:22:41.340Z,11.02
2023-03-18T01:25:10.041Z,12.20
2023-03-18T01:27:37.975Z,10.32
2023-03-18T01:30:05.948Z,11.15
2023-03-18T01:32:33.358Z,12.20
2023-03-18T01:35:00.512Z,13.13
2023-03-18T01:37:28.994Z,10.93
2023-03-18T01:39:56.224Z,11.55
2023-03-18T01:42:23.391Z,11.70
2023-03-18T01:44:50.751Z,10.82
2023-03-18T01:47:18.003Z,11.48
2023-03-18T01:49:49.325Z,9.63
2023-03-18T01:54:49.828Z,10.75
2023-03-18T01:57:17.905Z,8.48
2023-03-18T01:59:45.813Z,9.82
2023-03-18T02:02:14.746Z,10.02
2023-03-18T02:04:48.203Z,10.52
2023-03-18T02:07:19.182Z,9.15
2023-03-18T02:09:47.312Z,9.95
2023-03-18T02:12:15.632Z,9.52
2023-03-18T02:14:43.121Z,10.23
2023-03-18T02:17:13.158Z,9.60
2023-03-18T02:19:47.871Z,9.80
2023-03-18T02:22:15.343Z,10.45
2023-03-18T02:24:42.422Z,10.57
2023-03-18T02:27:17.432Z,9.25
2023-03-18T02:29:44.750Z,9.88
2023-03-18T02:32:12.182Z,9.57
2023-03-18T02:34:40.897Z,9.38
2023-03-18T02:37:08.126Z,9.95
2023-03-18T02:39:35.727Z,9.23
2023-03-18T02:42:02.998Z,8.20
2023-03-18T02:44:30.293Z,9.45
2023-03-18T02:46:59.935Z,8.88
2023-03-18T02:49:27.794Z,8.90
2023-03-18T02:51:55.483Z,8.35
2023-03-18T02:54:24.240Z,7.30
2023-03-18T02:56:52.008Z,8.38
2023-03-18T02:59:19.653Z,7.40
2023-03-18T03:01:47.821Z,7.95
2023-03-18T03:04:16.169Z,8.32
2023-03-18T03:06:44.101Z,7.93
2023-03-18T03:09:13.471Z,7.82
2023-03-18T03:11:40.879Z,7.50
2023-03-18T03:14:09.400Z,8.18
2023-03-18T03:16:37.762Z,6.80
2023-03-18T03:19:06.135Z,7.32
2023-03-18T03:21:35.805Z,7.13
2023-03-18T03:24:04.605Z,6.93
2023-03-18T03:26:31.884Z,7.90
2023-03-18T03:29:00.397Z,7.15
2023-03-18T03:31:27.639Z,7.43
2023-03-18T03:33:54.898Z,6.70
2023-03-18T03:36:22.059Z,6.78
2023-03-18T03:38:49.151Z,7.00
2023-03-18T03:41:16.304Z,6.65
2023-03-18T03:43:44.742Z,7.63
2023-03-18T03:46:11.980Z,6.90
2023-03-18T03:48:39.716Z,7.60
2023-03-18T03:51:07.556Z,7.07
2023-03-18T03:53:35.992Z,7.30
2023-03-18T03:56:03.710Z,6.68
2023-03-18T03:58:30.844Z,7.35
2023-03-18T04:00:58.349Z,7.25
2023-03-18T04:03:25.673Z,7.45
2023-03-18T04:05:52.995Z,7.10
2023-03-18T04:08:20.646Z,7.00
2023-03-18T04:10:47.803Z,6.65
2023-03-18T04:13:14.876Z,7.13
2023-03-18T04:15:42.238Z,7.70
2023-03-18T04:18:09.600Z,6.85
2023-03-18T04:20:40.103Z,7.18
2023-03-18T04:23:07.821Z,8.07
2023-03-18T04:25:35.399Z,7.95
2023-03-18T04:28:02.899Z,7.18
2023-03-18T04:30:30.793Z,6.28
2023-03-18T04:32:59.699Z,8.07
2023-03-18T04:35:26.996Z,7.65
2023-03-18T04:37:54.667Z,8.68
2023-03-18T04:40:21.882Z,7.78
2023-03-18T04:42:48.953Z,6.63
2023-03-18T04:45:16.999Z,7.70
2023-03-18T04:47:45.397Z,7.95
2023-03-18T04:50:13.648Z,7.75
2023-03-18T04:52:41.315Z,6.82
2023-03-18T04:55:09.674Z,8.27
2023-03-18T04:57:38.421Z,7.25
2023-03-18T05:00:07.663Z,8.38
2023-03-18T05:02:36.111Z,7.93
2023-03-18T05:05:03.364Z,7.38
2023-03-18T05:07:30.583Z,7.38
2023-03-18T05:09:57.804Z,7.88
2023-03-18T05:12:25.637Z,7.57
2023-03-18T05:14:53.283Z,8.73
2023-03-18T05:17:20.601Z,7.40
2023-03-18T05:19:48.448Z,8.10
2023-03-18T05:22:17.483Z,7.57
2023-03-18T05:24:46.158Z,7.63
2023-03-18T05:27:18.346Z,7.25
2023-03-18T05:29:46.047Z,7.53
2023-03-18T05:32:14.837Z,8.02
2023-03-18T05:34:42.476Z,7.20
2023-03-18T05:37:10.498Z,6.45
2023-03-18T05:39:38.187Z,6.20
2023-03-18T05:42:06.377Z,6.65
2023-03-18T05:44:34.072Z,6.60
2023-03-18T05:47:01.807Z,6.72
2023-03-18T05:49:29.073Z,7.45
2023-03-18T05:51:56.993Z,6.55
2023-03-18T05:54:24.231Z,6.03
2023-03-18T05:56:52.723Z,5.85
2023-03-18T05:59:20.743Z,5.72
2023-03-18T06:01:49.081Z,5.47
2023-03-18T06:04:17.257Z,5.43
2023-03-18T06:06:44.420Z,6.10
2023-03-18T06:09:12.958Z,5.50
2023-03-18T06:11:40.591Z,4.97
2023-03-18T06:14:08.407Z,5.18
2023-03-18T06:16:36.152Z,5.25
2023-03-18T06:19:04.029Z,4.80
2023-03-18T06:21:33.092Z,4.50
2023-03-18T06:24:00.537Z,4.65
2023-03-18T06:26:28.113Z,4.40
2023-03-18T06:28:55.206Z,5.07
2023-03-18T06:31:22.497Z,5.25
2023-03-18T06:33:50.017Z,5.07
2023-03-18T06:36:17.795Z,5.18
2023-03-18T06:38:45.901Z,4.22
2023-03-18T06:41:13.244Z,4.10
2023-03-18T06:43:40.361Z,4.30
2023-03-18T06:46:07.798Z,5.13
2023-03-18T06:48:35.819Z,4.57
2023-03-18T06:51:03.908Z,4.60
2023-03-18T06:53:31.065Z,4.60
2023-03-18T06:55:58.169Z,6.38
2023-03-18T06:58:25.954Z,5.15
2023-03-18T07:00:53.244Z,4.10
2023-03-18T07:03:21.591Z,4.82
2023-03-18T07:05:48.727Z,4.82
2023-03-18T07:08:16.826Z,4.10
2023-03-18T07:10:43.941Z,4.03
2023-03-18T07:13:13.225Z,4.40
2023-03-18T07:15:40.359Z,5.13
2023-03-18T07:18:07.499Z,4.35
2023-03-18T07:20:36.662Z,4.85
2023-03-18T07:23:04.106Z,4.45
2023-03-18T07:25:32.488Z,5.10
2023-03-18T07:28:00.492Z,4.95
2023-03-18T07:30:28.913Z,4.43
2023-03-18T07:32:56.517Z,5.25
2023-03-18T07:35:23.797Z,4.72
2023-03-18T07:37:51.495Z,5.00
2023-03-18T07:40:18.754Z,7.43
2023-03-18T07:42:46.015Z,5.55
2023-03-18T07:45:13.185Z,5.40
2023-03-18T07:47:40.270Z,5.25
2023-03-18T07:50:07.674Z,4.85
2023-03-18T07:52:35.815Z,4.28
2023-03-18T07:55:03.112Z,5.13
2023-03-18T07:57:30.232Z,4.88
2023-03-18T07:59:57.412Z,5.22
2023-03-18T08:02:25.336Z,4.53
2023-03-18T08:04:52.675Z,5.30
2023-03-18T08:07:19.988Z,5.55
2023-03-18T08:09:47.081Z,5.25
2023-03-18T08:12:14.196Z,5.20
2023-03-18T08:14:41.784Z,5.10
2023-03-18T08:17:08.945Z,4.90
2023-03-18T08:19:36.298Z,5.18
2023-03-18T08:22:03.502Z,4.57
2023-03-18T08:24:30.652Z,4.30
2023-03-18T08:26:57.828Z,5.05
2023-03-18T08:29:24.976Z,4.57
2023-03-18T08:31:52.119Z,4.40
2023-03-18T08:34:19.223Z,4.47
2023-03-18T08:36:46.355Z,4.50
2023-03-18T08:39:13.440Z,4.95
2023-03-18T08:41:40.905Z,4.70
2023-03-18T08:44:10.782Z,5.22
2023-03-18T08:46:38.490Z,6.05
2023-03-18T08:49:06.148Z,4.93
2023-03-18T08:51:33.303Z,4.28
2023-03-18T08:54:00.615Z,5.18
2023-03-18T08:56:28.117Z,5.70
2023-03-18T08:58:55.304Z,5.28
2023-03-18T09:01:22.560Z,5.25
2023-03-18T09:03:50.734Z,5.53
2023-03-18T09:06:18.183Z,6.50
2023-03-18T09:08:45.297Z,5.15
2023-03-18T09:11:13.759Z,5.18
2023-03-18T09:13:41.220Z,5.35
2023-03-18T09:16:08.517Z,5.47
2023-03-18T09:18:35.672Z,5.60
2023-03-18T09:21:03.349Z,5.05
2023-03-18T09:23:30.431Z,4.70
2023-03-18T09:25:57.543Z,5.82
2023-03-18T09:28:25.041Z,5.38
2023-03-18T09:30:52.582Z,5.50
2023-03-18T09:33:20.755Z,3.70
2023-03-18T09:35:48.633Z,3.65
2023-03-18T09:38:17.179Z,3.65
2023-03-18T09:41:04.563Z,3.45
2023-03-18T09:43:37.845Z,4.15
2023-03-18T09:46:11.552Z,4.00
2023-03-18T09:48:45.900Z,3.33
2023-03-18T09:51:18.177Z,3.15
2023-03-18T09:53:53.296Z,3.67
2023-03-18T09:56:24.520Z,3.85
2023-03-18T09:59:13.366Z,3.55
2023-03-18T10:01:41.318Z,4.47
2023-03-18T10:04:21.513Z,3.78
2023-03-18T10:06:50.816Z,3.95
2023-03-18T10:09:31.922Z,3.70
2023-03-18T10:12:07.436Z,3.85
2023-03-18T10:14:37.974Z,4.50
2023-03-18T10:17:14.140Z,5.30
2023-03-18T10:19:45.602Z,4.70
2023-03-18T10:22:18.804Z,5.20
2023-03-18T10:24:48.918Z,5.03
2023-03-18T10:27:19.967Z,5.35
2023-03-18T10:29:50.225Z,5.18
2023-03-18T10:32:20.403Z,5.45
2023-03-18T10:34:47.517Z,4.70
2023-03-18T10:37:34.961Z,4.50
2023-03-18T10:40:02.273Z,3.63
2023-03-18T10:42:32.661Z,4.70
2023-03-18T10:45:14.939Z,4.10
2023-03-18T10:47:44.510Z,6.57
2023-03-18T10:50:17.782Z,4.13
2023-03-18T10:53:03.643Z,4.63
2023-03-18T10:55:34.224Z,5.32
2023-03-18T10:58:02.644Z,3.75
2023-03-18T11:00:33.005Z,4.03
2023-03-18T11:03:00.622Z,4.93
2023-03-18T11:05:29.340Z,7.50
2023-03-18T11:08:05.053Z,5.88
2023-03-18T11:10:34.874Z,5.25
2023-03-18T11:13:02.726Z,4.97
2023-03-18T11:15:31.282Z,4.25
2023-03-18T11:18:02.571Z,5.20
2023-03-18T11:23:12.105Z,3.95
2023-03-18T11:25:40.561Z,4.40
2023-03-18T11:28:19.444Z,4.13
2023-03-18T11:30:51.756Z,4.80
2023-03-18T11:33:19.768Z,4.70
2023-03-18T11:35:48.210Z,4.55
2023-03-18T11:38:19.779Z,4.80
2023-03-18T11:40:47.372Z,4.72
2023-03-18T11:43:19.954Z,4.28
2023-03-18T11:46:01.379Z,5.30
2023-03-18T11:51:14.080Z,4.55
2023-03-18T11:53:52.668Z,4.32
2023-03-18T11:56:27.544Z,4.47
2023-03-18T11:59:05.035Z,4.18
2023-03-18T12:01:47.569Z,4.60
2023-03-18T12:04:23.534Z,4.72
2023-03-18T12:06:59.154Z,4.32
2023-03-18T12:09:31.420Z,4.22
2023-03-18T12:12:02.067Z,4.13
2023-03-18T12:14:35.855Z,4.45
2023-03-18T12:17:06.369Z,4.60
2023-03-18T12:19:33.488Z,4.35
2023-03-18T12:22:13.508Z,5.20
2023-03-18T12:24:43.344Z,4.97
2023-03-18T12:27:14.477Z,4.38
2023-03-18T12:29:53.682Z,3.03
2023-03-18T12:32:31.569Z,3.33
2023-03-18T12:35:16.067Z,2.70
2023-03-18T12:38:02.286Z,3.50
2023-03-18T12:40:45.446Z,3.05
2023-03-18T12:43:31.051Z,2.78
2023-03-18T12:46:04.233Z,2.83
2023-03-18T12:48:43.812Z,3.00
2023-03-18T12:51:15.499Z,3.55
2023-03-18T12:53:47.189Z,4.18
2023-03-18T12:56:19.559Z,3.67
2023-03-18T12:58:48.841Z,3.70
2023-03-18T13:01:22.165Z,3.65
2023-03-18T13:03:51.185Z,3.55
2023-03-18T13:06:22.245Z,3.90
2023-03-18T13:08:56.596Z,3.50
2023-03-18T13:11:46.011Z,3.70
2023-03-18T13:14:25.933Z,4.05
2023-03-18T13:16:54.229Z,3.70
2023-03-18T13:19:21.422Z,4.40
2023-03-18T13:22:07.488Z,4.00
2023-03-18T13:24:34.621Z,4.25
2023-03-18T13:27:10.854Z,4.13
2023-03-18T13:29:45.219Z,4.10
2023-03-18T13:32:31.120Z,4.32
2023-03-18T13:35:08.817Z,3.90
2023-03-18T13:38:03.983Z,3.83
2023-03-18T13:40:34.310Z,4.63
2023-03-18T13:43:02.159Z,4.67
2023-03-18T13:45:39.495Z,4.68
2023-03-18T13:48:08.728Z,4.70
2023-03-18T13:50:37.943Z,4.13
2023-03-18T13:53:06.403Z,4.03
2023-03-18T13:55:39.795Z,4.72
2023-03-18T13:58:07.499Z,4.63
2023-03-18T14:00:36.222Z,4.45
2023-03-18T14:03:06.709Z,4.72
2023-03-18T14:05:34.179Z,5.57
2023-03-18T14:08:05.256Z,5.35
2023-03-18T14:10:32.638Z,4.93
2023-03-18T14:13:19.780Z,4.65
2023-03-18T14:15:47.197Z,5.03
2023-03-18T14:18:36.579Z,4.88
2023-03-18T14:21:05.388Z,4.25
2023-03-18T14:23:38.678Z,4.32
2023-03-18T14:26:21.130Z,4.00
2023-03-18T14:28:50.732Z,3.85
2023-03-18T14:31:32.640Z,3.38
2023-03-18T14:34:02.856Z,3.70
2023-03-18T14:36:48.997Z,3.67
2023-03-18T14:39:19.225Z,3.75
2023-03-18T14:41:49.079Z,3.70
2023-03-18T14:44:21.334Z,3.55
2023-03-18T14:46:51.501Z,4.28
2023-03-18T14:49:41.968Z,3.70
2023-03-18T14:52:30.190Z,3.30
2023-03-18T14:54:59.677Z,3.38
2023-03-18T14:57:26.813Z,3.75
2023-03-18T14:59:53.946Z,3.85
2023-03-18T15:02:26.910Z,3.67
2023-03-18T15:04:55.589Z,4.70
2023-03-18T15:07:29.954Z,5.22
2023-03-18T15:09:57.070Z,4.00
2023-03-18T15:12:26.937Z,3.60
2023-03-18T15:14:54.337Z,3.60
2023-03-18T15:17:21.457Z,3.58
2023-03-18T15:19:48.524Z,3.60
2023-03-18T15:22:21.180Z,3.70
2023-03-18T15:24:48.461Z,3.95
2023-03-18T15:27:18.591Z,4.05
2023-03-18T15:29:49.474Z,4.05
2023-03-18T15:32:33.075Z,4.13
2023-03-18T15:35:19.027Z,4.93
2023-03-18T15:37:47.133Z,5.13
2023-03-18T15:40:33.250Z,6.10
2023-03-18T15:43:17.275Z,6.32
2023-03-18T15:45:55.157Z,5.28
2023-03-18T15:48:29.680Z,6.15
2023-03-18T15:51:01.710Z,6.22
2023-03-18T15:53:30.308Z,6.95
2023-03-18T15:55:58.971Z,6.90
2023-03-18T15:58:35.389Z,5.45
2023-03-18T16:01:02.803Z,5.45
2023-03-18T16:03:33.633Z,4.90
2023-03-18T16:06:01.396Z,4.65
2023-03-18T16:08:28.771Z,5.25
2023-03-18T16:10:58.111Z,4.78
2023-03-18T16:13:27.279Z,4.95
2023-03-18T16:15:54.379Z,5.03
2023-03-18T16:18:21.757Z,5.05
2023-03-18T16:20:50.422Z,5.78
2023-03-18T16:23:18.831Z,5.93
2023-03-18T16:25:47.722Z,6.75
2023-03-18T16:28:25.903Z,6.20
2023-03-18T16:30:55.242Z,6.55
2023-03-18T16:33:23.321Z,6.63
2023-03-18T16:35:54.003Z,6.28
2023-03-18T16:38:21.762Z,6.38
2023-03-18T16:40:49.038Z,5.78
2023-03-18T16:43:17.366Z,5.80
2023-03-18T16:45:44.701Z,6.00
2023-03-18T16:48:15.543Z,6.18
2023-03-18T16:50:43.622Z,6.20
2023-03-18T16:53:17.309Z,6.43
2023-03-18T16:55:45.715Z,6.47
2023-03-18T16:58:14.294Z,6.55
2023-03-18T17:00:41.531Z,7.03
2023-03-18T17:03:11.834Z,6.68
2023-03-18T17:05:38.952Z,7.05
2023-03-18T17:08:06.248Z,7.00
2023-03-18T17:10:34.660Z,11.98
2023-03-18T17:13:05.806Z,11.10
2023-03-18T17:15:36.979Z,9.20
2023-03-18T17:18:05.109Z,8.18
2023-03-18T17:20:32.857Z,9.18
2023-03-18T17:23:01.020Z,8.73
2023-03-18T17:25:30.360Z,10.38
2023-03-18T17:28:02.404Z,10.18
2023-03-18T17:30:33.711Z,9.73
2023-03-18T17:33:02.633Z,11.20
2023-03-18T17:35:29.877Z,14.68
2023-03-18T17:37:57.187Z,12.98
2023-03-18T17:40:27.045Z,11.65
2023-03-18T17:42:54.244Z,11.32
2023-03-18T17:45:25.875Z,10.65
2023-03-18T17:47:53.550Z,10.80
2023-03-18T17:50:21.112Z,10.52
2023-03-18T17:52:50.186Z,10.57
2023-03-18T17:55:18.899Z,10.50
2023-03-18T17:57:46.947Z,10.98
2023-03-18T18:00:15.719Z,12.27
2023-03-18T18:02:43.594Z,11.75
2023-03-18T18:05:15.058Z,12.52
2023-03-18T18:10:11.265Z,11.90
2023-03-18T18:12:38.593Z,12.68
2023-03-18T18:15:06.521Z,12.13
2023-03-18T18:17:33.662Z,12.23
2023-03-18T18:20:00.816Z,15.50
2023-03-18T18:22:27.907Z,13.68
2023-03-18T18:24:56.532Z,14.52
2023-03-18T18:27:24.357Z,14.43
2023-03-18T18:29:51.781Z,13.68
2023-03-18T18:32:21.774Z,13.52
2023-03-18T18:34:49.283Z,12.32
2023-03-18T18:37:16.530Z,12.85
2023-03-18T18:39:43.638Z,11.88
2023-03-18T18:42:12.403Z,13.45
2023-03-18T18:44:40.247Z,13.50
2023-03-18T18:47:17.518Z,15.77
2023-03-18T18:49:44.620Z,13.48
2023-03-18T18:52:12.488Z,13.48
2023-03-18T18:54:39.618Z,13.35
2023-03-18T18:57:07.362Z,13.55
2023-03-18T18:59:34.981Z,13.18
2023-03-18T19:02:03.487Z,14.07
2023-03-18T19:04:30.659Z,14.05
2023-03-18T19:06:58.374Z,13.02
2023-03-18T19:09:26.513Z,12.18
2023-03-18T19:11:56.114Z,13.00
2023-03-18T19:14:24.769Z,13.90
2023-03-18T19:16:53.747Z,13.77
2023-03-18T19:19:22.592Z,14.25
2023-03-18T19:21:50.998Z,14.35
2023-03-18T19:24:28.062Z,14.27
2023-03-18T19:26:56.271Z,14.50
2023-03-18T19:29:23.531Z,13.65
2023-03-18T19:31:50.966Z,13.30
2023-03-18T19:34:18.626Z,13.63
2023-03-18T19:36:48.547Z,13.73
2023-03-18T19:39:16.861Z,14.55
2023-03-18T19:41:44.271Z,13.27
2023-03-18T19:44:18.989Z,13.15
2023-03-18T19:46:47.828Z,13.07
2023-03-18T19:49:24.052Z,13.07
2023-03-18T19:51:51.627Z,12.88
2023-03-18T19:54:32.887Z,14.27
2023-03-18T19:57:02.412Z,12.85
2023-03-18T19:59:38.138Z,13.00
2023-03-18T20:02:17.298Z,14.15
2023-03-18T20:04:44.454Z,14.60
2023-03-18T20:07:11.542Z,14.88
2023-03-18T20:09:39.385Z,15.32
2023-03-18T20:12:07.138Z,15.15
2023-03-18T20:14:39.101Z,14.98
2023-03-18T20:17:24.692Z,16.20
2023-03-18T20:19:51.854Z,16.33
2023-03-18T20:22:30.526Z,19.63
2023-03-18T20:24:57.770Z,19.52
2023-03-18T20:27:25.108Z,20.35
2023-03-18T20:29:52.262Z,20.13
2023-03-18T20:32:19.382Z,19.73
2023-03-18T20:34:47.035Z,24.10
2023-03-18T20:37:22.054Z,24.73
2023-03-18T20:39:50.020Z,26.77
2023-03-18T20:42:17.620Z,28.98
2023-03-18T20:44:45.708Z,26.52
2023-03-18T20:47:13.555Z,25.35
2023-03-18T20:49:44.500Z,25.27
2023-03-18T20:52:22.985Z,25.15
2023-03-18T20:54:50.185Z,25.33
2023-03-18T20:57:18.790Z,26.58
2023-03-18T20:59:46.808Z,29.17
2023-03-18T21:02:33.527Z,30.10
2023-03-18T21:05:01.760Z,30.13
2023-03-18T21:07:29.432Z,29.33
2023-03-18T21:09:56.634Z,31.63
2023-03-18T21:12:23.924Z,31.27
2023-03-18T21:14:51.126Z,31.45
2023-03-18T21:17:22.204Z,29.52
2023-03-18T21:19:49.838Z,28.85
2023-03-18T21:22:35.070Z,27.52
2023-03-18T21:25:02.235Z,29.83
2023-03-18T21:27:29.836Z,30.23
2023-03-18T21:30:00.166Z,29.80
2023-03-18T21:32:29.989Z,31.92
2023-03-18T21:34:57.195Z,29.52
2023-03-18T21:37:25.497Z,29.70
2023-03-18T21:39:53.203Z,30.85
2023-03-18T21:42:23.746Z,30.83
2023-03-18T21:44:51.467Z,30.15
2023-03-18T21:47:20.217Z,33.42
2023-03-18T21:49:47.663Z,34.38
2023-03-18T21:52:31.404Z,37.00
2023-03-18T21:54:59.088Z,33.60
2023-03-18T21:57:26.627Z,33.05
2023-03-18T21:59:54.288Z,31.45
2023-03-18T22:02:27.513Z,30.83
2023-03-18T22:04:58.642Z,30.35
2023-03-18T22:07:29.878Z,29.73
2023-03-18T22:09:57.686Z,31.27
2023-03-18T22:12:24.861Z,31.65
2023-03-18T22:14:52.088Z,32.00
2023-03-18T22:17:20.417Z,31.70
2023-03-18T22:19:48.248Z,31.05
2023-03-18T22:22:16.696Z,31.38
2023-03-18T22:24:44.161Z,31.00
2023-03-18T22:27:17.377Z,28.50
2023-03-18T22:29:44.448Z,23.58
2023-03-18T22:32:23.646Z,20.25
2023-03-18T22:34:51.091Z,29.85
2023-03-18T22:37:22.239Z,28.52
2023-03-18T22:42:18.244Z,22.60
2023-03-18T22:44:45.454Z,22.00
2023-03-18T22:47:16.585Z,20.58
2023-03-18T22:49:43.746Z,23.52
2023-03-18T22:52:21.160Z,25.08
2023-03-18T22:54:49.108Z,23.73
2023-03-18T22:57:20.834Z,23.33
2023-03-18T22:59:48.010Z,23.15
2023-03-18T23:02:21.880Z,19.90
2023-03-18T23:04:49.669Z,19.20
2023-03-18T23:07:31.144Z,16.30
2023-03-18T23:09:59.524Z,16.27
2023-03-18T23:12:27.584Z,15.77
2023-03-18T23:14:55.171Z,13.55
2023-03-18T23:17:23.688Z,13.30
2023-03-18T23:19:51.147Z,13.32
2023-03-18T23:22:22.396Z,14.50
2023-03-18T23:27:16.704Z,13.07
2023-03-18T23:29:43.906Z,13.50
2023-03-18T23:32:11.702Z,12.95
2023-03-18T23:34:38.831Z,12.75
2023-03-18T23:37:05.978Z,12.25
2023-03-18T23:39:33.273Z,11.90
2023-03-18T23:42:00.692Z,11.45
2023-03-18T23:44:28.277Z,11.38
2023-03-18T23:46:55.701Z,10.43
2023-03-18T23:49:22.856Z,10.85
2023-03-18T23:51:50.007Z,10.75
2023-03-18T23:54:17.428Z,9.82
2023-03-18T23:56:44.617Z,10.50
2023-03-18T23:59:11.716Z,10.68
